Time;durP1;ratioP1;P1;durP2;ratioP2;P2;SDS_P1;SDS_P2;PMS_P1;PMS_P2;Temp;Humidity;BMP_temperature;BMP_pressure;BME280_temperature;BME280_humidity;BME280_pressure;Samples;Min_cycle;Max_cycle;Signal;HPM_P1;HPM_P2
2021/08/06 00:00:39;;;;;;;6.60;6.03;;;19.00;99.90;;;;;;4995675;28;20446;-44
2021/08/06 00:03:07;;;;;;;5.80;5.20;;;19.00;99.90;;;;;;4995799;28;20457;-48
2021/08/06 00:05:34;;;;;;;10.03;7.40;;;19.00;99.90;;;;;;4995969;28;20446;-42
2021/08/06 00:08:01;;;;;;;8.30;7.50;;;19.00;99.90;;;;;;4995506;28;21009;-42
2021/08/06 00:10:27;;;;;;;6.47;5.73;;;19.00;99.90;;;;;;4995415;28;20512;-48
2021/08/06 00:12:54;;;;;;;8.30;7.10;;;19.00;99.90;;;;;;4995579;28;20979;-46
2021/08/06 00:15:21;;;;;;;8.00;6.27;;;19.00;99.90;;;;;;4995977;28;20450;-44
2021/08/06 00:17:49;;;;;;;7.40;6.67;;;19.10;99.90;;;;;;4995542;28;20450;-46
2021/08/06 00:20:15;;;;;;;7.40;6.70;;;19.10;99.90;;;;;;4995637;28;20827;-48
2021/08/06 00:22:42;;;;;;;8.00;6.37;;;19.10;99.90;;;;;;4995649;28;20453;-48
2021/08/06 00:25:09;;;;;;;8.57;7.47;;;19.10;99.90;;;;;;4995355;28;20473;-45
2021/08/06 00:27:36;;;;;;;7.43;6.70;;;19.10;99.90;;;;;;4995605;28;20903;-43
2021/08/06 00:30:03;;;;;;;8.43;7.00;;;19.10;99.90;;;;;;4995719;28;20450;-45
2021/08/06 00:32:34;;;;;;;12.30;8.60;;;19.10;99.90;;;;;;4995360;28;20508;-44
2021/08/06 00:35:01;;;;;;;8.77;7.87;;;19.10;99.90;;;;;;4994572;28;20458;-44
2021/08/06 00:37:28;;;;;;;8.03;6.97;;;19.10;99.90;;;;;;4995301;28;20527;-43
2021/08/06 00:39:55;;;;;;;9.10;8.20;;;19.10;99.90;;;;;;4995332;28;20553;-44
2021/08/06 00:42:21;;;;;;;9.47;7.17;;;19.10;99.90;;;;;;4995202;28;20461;-43
2021/08/06 00:44:48;;;;;;;7.37;6.67;;;19.10;99.90;;;;;;4995014;28;20442;-49
2021/08/06 00:47:15;;;;;;;7.27;6.67;;;19.10;99.90;;;;;;4995357;28;20446;-48
2021/08/06 00:49:42;;;;;;;6.77;6.13;;;19.10;99.90;;;;;;4995173;28;20461;-49
2021/08/06 00:52:11;;;;;;;7.30;6.60;;;19.10;99.90;;;;;;4995280;28;20457;-48
2021/08/06 00:54:37;;;;;;;7.00;6.33;;;19.10;99.90;;;;;;4994632;28;20581;-49
2021/08/06 00:57:05;;;;;;;7.50;6.80;;;19.10;99.90;;;;;;4994888;28;20493;-48
2021/08/06 00:59:31;;;;;;;7.50;6.77;;;19.10;99.90;;;;;;4995128;28;20850;-48
2021/08/06 01:02:05;;;;;;;7.57;6.87;;;19.10;99.90;;;;;;4995145;28;20453;-49
2021/08/06 01:04:40;;;;;;;8.47;7.67;;;19.10;99.90;;;;;;4995080;28;20805;-48
2021/08/06 01:07:14;;;;;;;7.40;6.70;;;19.10;99.90;;;;;;4994851;28;20488;-45
2021/08/06 01:09:45;;;;;;;9.23;7.37;;;19.10;99.90;;;;;;4994834;28;20440;-46
2021/08/06 01:12:20;;;;;;;7.53;6.77;;;19.10;99.90;;;;;;4995193;28;20427;-45
2021/08/06 01:14:50;;;;;;;11.20;6.50;;;19.10;99.90;;;;;;4994556;28;21020;-48
2021/08/06 01:17:18;;;;;;;7.60;6.90;;;19.10;99.90;;;;;;4995047;28;20454;-47
2021/08/06 01:19:53;;;;;;;7.63;6.93;;;19.20;99.90;;;;;;4994967;28;20446;-45
2021/08/06 01:22:27;;;;;;;6.93;6.23;;;19.20;99.90;;;;;;4994772;28;20470;-46
2021/08/06 01:25:04;;;;;;;8.47;7.30;;;19.30;99.90;;;;;;4994847;28;20460;-43
2021/08/06 01:27:33;;;;;;;8.03;6.90;;;19.30;99.90;;;;;;4994662;28;20461;-50
2021/08/06 01:29:59;;;;;;;7.90;7.17;;;19.30;99.90;;;;;;4994482;28;20520;-50
2021/08/06 01:32:30;;;;;;;7.67;7.07;;;19.30;99.90;;;;;;4994508;28;20454;-46
2021/08/06 01:34:56;;;;;;;7.33;6.63;;;19.30;99.90;;;;;;4994726;28;20805;-46
2021/08/06 01:37:23;;;;;;;7.13;6.40;;;19.30;99.90;;;;;;4994366;28;20982;-44
2021/08/06 01:39:50;;;;;;;8.27;6.97;;;19.30;99.90;;;;;;4994551;28;20927;-43
2021/08/06 01:42:29;;;;;;;7.23;6.53;;;19.40;99.90;;;;;;4994668;28;20461;-49
2021/08/06 01:44:57;;;;;;;7.53;6.73;;;19.40;99.90;;;;;;4994560;28;20449;-49
2021/08/06 01:47:28;;;;;;;7.53;6.83;;;19.30;99.90;;;;;;4998502;28;20500;-46
2021/08/06 01:49:58;;;;;;;7.03;6.33;;;19.30;99.90;;;;;;4998734;28;20485;-44
2021/08/06 01:52:28;;;;;;;7.33;6.60;;;19.40;99.90;;;;;;4998653;28;20461;-43
2021/08/06 01:54:55;;;;;;;7.63;6.93;;;19.30;99.90;;;;;;4997975;28;20560;-42
2021/08/06 01:57:23;;;;;;;7.40;6.70;;;19.30;99.90;;;;;;4998447;28;20460;-43
2021/08/06 01:59:50;;;;;;;7.77;6.80;;;19.30;99.90;;;;;;4998741;28;20519;-46
2021/08/06 02:02:18;;;;;;;10.30;6.27;;;19.30;99.90;;;;;;4998662;28;20511;-43
2021/08/06 02:04:48;;;;;;;7.60;6.83;;;19.30;99.90;;;;;;4998256;28;20450;-44
2021/08/06 02:07:15;;;;;;;6.77;6.07;;;19.30;99.90;;;;;;4998176;28;20449;-51
2021/08/06 02:09:43;;;;;;;6.63;5.93;;;19.30;99.90;;;;;;4997921;28;20468;-46
2021/08/06 02:12:10;;;;;;;7.57;6.63;;;19.20;99.90;;;;;;4997854;28;20446;-48
2021/08/06 02:14:37;;;;;;;6.90;6.33;;;19.20;99.90;;;;;;4998048;28;20477;-48
2021/08/06 02:17:04;;;;;;;6.80;6.20;;;19.20;99.90;;;;;;4997849;28;20457;-49
2021/08/06 02:19:33;;;;;;;7.07;6.37;;;19.30;99.90;;;;;;4997657;28;20457;-47
2021/08/06 02:22:02;;;;;;;7.20;6.60;;;19.20;99.90;;;;;;4997664;28;20464;-44
2021/08/06 02:24:32;;;;;;;6.77;6.17;;;19.20;99.90;;;;;;4997675;28;20516;-48
2021/08/06 02:26:59;;;;;;;7.43;6.37;;;19.10;99.90;;;;;;4997756;28;20477;-44
2021/08/06 02:29:29;;;;;;;7.97;6.70;;;19.10;99.90;;;;;;4997692;28;20536;-43
2021/08/06 02:31:58;;;;;;;7.27;6.57;;;19.10;99.90;;;;;;4997829;28;20779;-49
2021/08/06 02:34:26;;;;;;;7.97;7.17;;;19.10;99.90;;;;;;4997328;28;20807;-46
2021/08/06 02:36:54;;;;;;;6.20;5.60;;;19.10;99.90;;;;;;4997352;28;20442;-47
2021/08/06 02:39:23;;;;;;;8.43;7.07;;;19.10;99.90;;;;;;4997451;28;20453;-43
2021/08/06 02:41:50;;;;;;;8.63;7.73;;;19.10;99.90;;;;;;4997657;28;20752;-42
2021/08/06 02:44:18;;;;;;;7.47;6.77;;;19.00;99.90;;;;;;4997621;28;20516;-46
2021/08/06 02:46:45;;;;;;;8.00;7.10;;;19.00;99.90;;;;;;4997300;28;20464;-42
2021/08/06 02:49:12;;;;;;;6.93;6.33;;;18.90;99.90;;;;;;4997211;28;20585;-43
2021/08/06 02:51:39;;;;;;;9.77;7.57;;;18.80;99.90;;;;;;4996901;28;20484;-43
2021/08/06 02:54:07;;;;;;;8.53;7.73;;;18.80;99.90;;;;;;4997252;28;20847;-42
2021/08/06 02:56:34;;;;;;;9.00;7.87;;;18.80;99.90;;;;;;4996771;28;20560;-44
2021/08/06 02:59:00;;;;;;;8.33;7.53;;;18.70;99.90;;;;;;4996826;28;20525;-45
2021/08/06 03:01:27;;;;;;;8.43;7.63;;;18.70;99.90;;;;;;4997412;28;20787;-43
2021/08/06 03:03:54;;;;;;;7.50;6.80;;;18.70;99.90;;;;;;4996781;28;20438;-43
2021/08/06 03:06:20;;;;;;;8.10;7.30;;;18.70;99.90;;;;;;4997155;28;20504;-51
2021/08/06 03:08:47;;;;;;;9.63;8.87;;;18.70;99.90;;;;;;4997264;28;20470;-49
2021/08/06 03:11:15;;;;;;;8.77;7.37;;;18.60;99.90;;;;;;4997393;28;20477;-48
2021/08/06 03:13:42;;;;;;;8.23;7.53;;;18.60;99.90;;;;;;4996786;28;20966;-50
2021/08/06 03:16:08;;;;;;;9.50;8.47;;;18.60;99.90;;;;;;4996582;28;20903;-45
2021/08/06 03:18:35;;;;;;;8.27;7.07;;;18.60;99.90;;;;;;4996967;28;20466;-50
2021/08/06 03:21:02;;;;;;;8.23;7.43;;;18.60;99.90;;;;;;4996559;28;20456;-49
2021/08/06 03:23:29;;;;;;;8.33;7.53;;;18.60;99.90;;;;;;4996842;28;20442;-47
2021/08/06 03:25:55;;;;;;;8.57;7.43;;;18.60;99.90;;;;;;4996686;28;20516;-44
2021/08/06 03:28:24;;;;;;;8.40;7.50;;;18.60;99.90;;;;;;4996686;28;20446;-46
2021/08/06 03:30:54;;;;;;;8.93;7.53;;;18.60;99.90;;;;;;4996695;28;20458;-43
2021/08/06 03:33:20;;;;;;;10.20;7.63;;;18.60;99.90;;;;;;4996589;28;20449;-42
2021/08/06 03:35:47;;;;;;;9.17;8.37;;;18.60;99.90;;;;;;4996486;28;20485;-50
2021/08/06 03:38:16;;;;;;;8.83;8.03;;;18.60;99.90;;;;;;4996376;28;20456;-47
2021/08/06 03:40:43;;;;;;;7.90;7.10;;;18.60;99.90;;;;;;4996262;28;20919;-49
2021/08/06 03:43:10;;;;;;;11.70;8.70;;;18.60;99.90;;;;;;4996307;28;20462;-48
2021/08/06 03:45:41;;;;;;;10.37;8.57;;;18.60;99.90;;;;;;4996348;28;20442;-45
2021/08/06 03:48:11;;;;;;;12.73;8.77;;;18.50;99.90;;;;;;4996651;28;20473;-45
2021/08/06 03:50:38;;;;;;;7.77;7.13;;;18.60;99.90;;;;;;4996608;28;20464;-53
2021/08/06 03:53:05;;;;;;;8.50;7.70;;;18.50;99.90;;;;;;4996324;28;20768;-47
2021/08/06 03:55:32;;;;;;;8.23;7.37;;;18.60;99.90;;;;;;4995892;28;20486;-46
2021/08/06 03:58:00;;;;;;;8.27;7.30;;;18.60;99.90;;;;;;4995832;28;20523;-43
2021/08/06 04:00:28;;;;;;;9.40;8.20;;;18.60;99.90;;;;;;4996207;28;20454;-49
2021/08/06 04:02:56;;;;;;;9.20;7.50;;;18.50;99.90;;;;;;4995769;28;20478;-45
2021/08/06 04:05:23;;;;;;;15.27;7.47;;;18.50;99.90;;;;;;4995965;28;20516;-43
2021/08/06 04:07:52;;;;;;;9.60;7.43;;;18.50;99.90;;;;;;4996064;28;20442;-46
2021/08/06 04:10:20;;;;;;;9.40;8.50;;;18.60;99.90;;;;;;4995826;28;20446;-45
2021/08/06 04:12:48;;;;;;;7.50;6.80;;;18.60;99.90;;;;;;4995853;28;20501;-45
2021/08/06 04:15:15;;;;;;;7.77;7.03;;;18.70;99.90;;;;;;4995754;28;20481;-42
2021/08/06 04:17:42;;;;;;;9.97;8.00;;;18.70;99.90;;;;;;4995523;28;20919;-43
2021/08/06 04:20:12;;;;;;;8.73;7.93;;;18.70;99.90;;;;;;4995720;28;20446;-44
2021/08/06 04:22:38;;;;;;;9.70;8.70;;;18.70;99.90;;;;;;4995673;28;20446;-51
2021/08/06 04:25:06;;;;;;;10.53;7.83;;;18.70;99.90;;;;;;4993222;28;20435;-45
2021/08/06 04:27:33;;;;;;;9.57;7.37;;;18.70;99.90;;;;;;4985842;28;20904;-47
2021/08/06 04:30:00;;;;;;;7.73;7.03;;;18.70;99.90;;;;;;4986150;28;20439;-48
2021/08/06 04:32:26;;;;;;;8.63;7.63;;;18.70;99.90;;;;;;4992225;28;20512;-45
2021/08/06 04:34:53;;;;;;;10.63;7.30;;;18.60;99.90;;;;;;4997737;28;20478;-45
2021/08/06 04:37:21;;;;;;;9.27;7.20;;;18.70;99.90;;;;;;4997721;28;20532;-47
2021/08/06 04:39:49;;;;;;;7.83;7.00;;;18.70;99.90;;;;;;4997418;28;20963;-48
2021/08/06 04:42:15;;;;;;;8.23;7.50;;;18.70;99.90;;;;;;4996215;28;20458;-46
2021/08/06 04:44:42;;;;;;;8.40;7.67;;;18.70;99.90;;;;;;4997066;28;20441;-47
2021/08/06 04:47:09;;;;;;;10.03;9.13;;;18.70;99.90;;;;;;4997172;28;20710;-46
2021/08/06 04:49:37;;;;;;;9.87;8.97;;;18.70;99.90;;;;;;4996631;28;20458;-49
2021/08/06 04:52:04;;;;;;;11.80;8.83;;;18.80;99.90;;;;;;4996357;28;20461;-49
2021/08/06 04:54:32;;;;;;;10.60;9.40;;;18.80;99.90;;;;;;4995747;28;20825;-46
2021/08/06 04:56:58;;;;;;;9.90;8.90;;;18.80;99.90;;;;;;4995728;28;20768;-50
2021/08/06 04:59:25;;;;;;;10.50;9.60;;;18.80;99.90;;;;;;4995717;28;20485;-53
2021/08/06 05:01:52;;;;;;;11.27;9.73;;;18.80;99.90;;;;;;4995991;28;20442;-52
2021/08/06 05:04:18;;;;;;;10.83;9.00;;;18.90;99.90;;;;;;4996074;28;20457;-53
2021/08/06 05:06:45;;;;;;;10.50;9.50;;;18.90;99.90;;;;;;4996096;28;20493;-51
2021/08/06 05:09:12;;;;;;;12.20;9.97;;;18.90;99.90;;;;;;4996024;28;20450;-52
2021/08/06 05:11:40;;;;;;;10.30;8.97;;;18.90;99.90;;;;;;4996432;28;20516;-53
2021/08/06 05:14:09;;;;;;;9.87;8.47;;;18.90;99.90;;;;;;4997858;28;20458;-48
2021/08/06 05:16:42;;;;;;;10.33;9.33;;;19.00;99.90;;;;;;4999480;28;20925;-49
2021/08/06 05:19:09;;;;;;;11.17;10.07;;;19.00;99.90;;;;;;4999402;28;20410;-48
2021/08/06 05:21:36;;;;;;;11.00;9.37;;;19.00;99.90;;;;;;4998795;28;20445;-49
2021/08/06 05:24:03;;;;;;;10.93;9.77;;;19.10;99.90;;;;;;4998333;28;20461;-46
2021/08/06 05:26:32;;;;;;;10.90;9.90;;;19.10;99.90;;;;;;4997932;28;20899;-46
2021/08/06 05:29:00;;;;;;;11.37;9.93;;;19.20;99.90;;;;;;4997596;28;20969;-47
2021/08/06 05:31:27;;;;;;;12.40;9.90;;;19.20;99.90;;;;;;4990481;28;20442;-47
2021/08/06 05:33:54;;;;;;;12.13;10.70;;;19.30;99.90;;;;;;4996390;28;20449;-48
2021/08/06 05:36:20;;;;;;;9.47;8.57;;;19.30;99.90;;;;;;4997008;28;20477;-45
2021/08/06 05:38:47;;;;;;;13.13;9.60;;;19.30;99.90;;;;;;4996219;28;20450;-46
2021/08/06 05:41:14;;;;;;;10.93;9.93;;;19.30;99.90;;;;;;4996005;28;20536;-46
2021/08/06 05:43:40;;;;;;;15.40;10.30;;;19.30;99.90;;;;;;4994301;28;20442;-48
2021/08/06 05:46:08;;;;;;;11.40;9.40;;;19.40;99.90;;;;;;4994552;28;20450;-48
2021/08/06 05:48:35;;;;;;;11.30;10.20;;;19.50;99.90;;;;;;4994846;28;20450;-46
2021/08/06 05:51:02;;;;;;;10.03;9.03;;;19.50;99.90;;;;;;4996239;28;20449;-46
2021/08/06 05:53:28;;;;;;;11.33;10.33;;;19.50;99.90;;;;;;4996419;28;20942;-47
2021/08/06 05:55:55;;;;;;;15.13;9.97;;;19.60;99.90;;;;;;4995865;28;20556;-47
2021/08/06 05:58:22;;;;;;;11.30;10.20;;;19.60;99.90;;;;;;4985581;28;20462;-48
2021/08/06 06:00:49;;;;;;;11.60;10.50;;;19.70;99.90;;;;;;4989708;28;20442;-49
2021/08/06 06:03:17;;;;;;;11.97;10.50;;;19.70;99.90;;;;;;4993137;28;20872;-47
2021/08/06 06:05:44;;;;;;;10.30;9.33;;;19.70;99.90;;;;;;4993524;28;20450;-53
2021/08/06 06:08:11;;;;;;;12.20;10.03;;;19.70;99.90;;;;;;4993740;28;20473;-52
2021/08/06 06:10:40;;;;;;;9.53;8.50;;;19.80;99.90;;;;;;4994285;28;20449;-52
2021/08/06 06:13:10;;;;;;;12.23;9.20;;;19.90;99.90;;;;;;4994313;28;20446;-50
2021/08/06 06:15:38;;;;;;;11.17;10.03;;;20.00;99.90;;;;;;4994323;28;20780;-50
2021/08/06 06:18:05;;;;;;;11.63;9.50;;;20.00;99.90;;;;;;4988039;28;20450;-49
2021/08/06 06:20:32;;;;;;;10.10;9.10;;;20.10;99.90;;;;;;4979979;28;20537;-57
2021/08/06 06:22:59;;;;;;;10.67;8.87;;;20.10;99.90;;;;;;4984436;28;20442;-49
2021/08/06 06:25:26;;;;;;;12.47;9.47;;;20.20;99.90;;;;;;4994028;28;20493;-52
2021/08/06 06:27:55;;;;;;;9.33;8.30;;;20.20;99.90;;;;;;4992965;28;20450;-46
2021/08/06 06:30:23;;;;;;;10.30;9.10;;;20.20;99.90;;;;;;4993651;28;20458;-49
2021/08/06 06:32:50;;;;;;;9.83;8.73;;;20.30;99.90;;;;;;4994910;28;20823;-50
2021/08/06 06:35:18;;;;;;;10.97;8.90;;;20.30;99.90;;;;;;4996989;28;20540;-50
2021/08/06 06:37:46;;;;;;;12.70;8.70;;;20.40;99.90;;;;;;4996687;28;20922;-49
2021/08/06 06:40:14;;;;;;;10.30;8.53;;;20.50;99.90;;;;;;4981323;28;20500;-52
2021/08/06 06:42:41;;;;;;;10.00;9.03;;;20.50;99.90;;;;;;4989531;28;20517;-52
2021/08/06 06:45:09;;;;;;;9.77;8.50;;;20.60;99.90;;;;;;4989030;28;20500;-50
2021/08/06 06:47:37;;;;;;;13.53;8.23;;;20.70;99.90;;;;;;4997173;28;20516;-52
2021/08/06 06:50:05;;;;;;;14.43;8.80;;;20.70;99.90;;;;;;4994400;28;20882;-50
2021/08/06 06:52:32;;;;;;;14.03;8.20;;;20.70;99.90;;;;;;4977181;28;20447;-51
2021/08/06 06:55:03;;;;;;;12.33;9.33;;;20.80;99.90;;;;;;4987326;28;20500;-49
2021/08/06 06:57:30;;;;;;;10.60;9.57;;;20.90;99.90;;;;;;4982426;28;20848;-49
2021/08/06 06:59:56;;;;;;;10.03;8.90;;;21.00;99.90;;;;;;4993490;28;20454;-48
2021/08/06 07:02:26;;;;;;;14.03;10.63;;;21.00;99.90;;;;;;4982678;28;20454;-48
2021/08/06 07:04:53;;;;;;;14.97;9.23;;;21.10;99.90;;;;;;4992127;28;20438;-50
2021/08/06 07:07:21;;;;;;;9.77;8.77;;;21.10;99.90;;;;;;4996796;28;20779;-48
2021/08/06 07:09:47;;;;;;;13.00;8.90;;;21.20;99.90;;;;;;4979504;28;20443;-49
2021/08/06 07:12:16;;;;;;;12.10;10.30;;;21.20;99.90;;;;;;4976743;28;20517;-47
2021/08/06 07:14:43;;;;;;;12.67;8.97;;;21.40;99.90;;;;;;4977191;28;20463;-48
2021/08/06 07:17:10;;;;;;;13.73;7.80;;;21.50;99.90;;;;;;4988464;28;20442;-45
2021/08/06 07:19:36;;;;;;;13.80;9.33;;;21.70;99.90;;;;;;4981136;28;20446;-48
2021/08/06 07:22:04;;;;;;;9.17;8.20;;;21.90;99.90;;;;;;4979270;28;20458;-44
2021/08/06 07:24:30;;;;;;;8.23;7.40;;;22.20;99.90;;;;;;4996321;28;20442;-47
2021/08/06 07:26:57;;;;;;;8.63;7.70;;;22.50;99.90;;;;;;4996338;28;20446;-49
2021/08/06 07:29:25;;;;;;;11.37;7.03;;;22.70;99.90;;;;;;4982887;28;20497;-47
2021/08/06 07:31:52;;;;;;;12.33;8.27;;;22.80;99.90;;;;;;4977608;28;20880;-48
2021/08/06 07:34:18;;;;;;;11.03;6.77;;;23.00;99.90;;;;;;4991126;28;20971;-50
2021/08/06 07:36:45;;;;;;;8.83;7.53;;;23.10;99.90;;;;;;4984782;28;20942;-48
2021/08/06 07:39:12;;;;;;;7.87;6.63;;;23.20;99.90;;;;;;4996038;28;20442;-45
2021/08/06 07:41:38;;;;;;;10.27;5.80;;;23.30;99.90;;;;;;4981154;28;20659;-46
2021/08/06 07:44:05;;;;;;;8.03;6.33;;;23.50;99.90;;;;;;4979304;28;20446;-46
2021/08/06 07:46:33;;;;;;;12.17;6.43;;;23.60;99.90;;;;;;4990231;28;20451;-46
2021/08/06 07:49:00;;;;;;;7.97;6.10;;;23.70;99.90;;;;;;4987047;28;20446;-48
2021/08/06 07:51:27;;;;;;;8.53;6.63;;;23.90;99.90;;;;;;4982112;28;20459;-46
2021/08/06 07:53:53;;;;;;;8.90;5.30;;;24.60;99.90;;;;;;4976734;28;20928;-48
2021/08/06 07:56:20;;;;;;;6.10;5.37;;;26.10;99.90;;;;;;4990684;28;20486;-48
2021/08/06 07:58:47;;;;;;;11.20;6.67;;;27.90;99.90;;;;;;4984459;28;20915;-45
2021/08/06 08:01:13;;;;;;;7.17;6.00;;;29.50;99.00;;;;;;4995462;28;20454;-49
2021/08/06 08:03:41;;;;;;;5.77;4.77;;;31.10;91.20;;;;;;4980026;28;20455;-50
2021/08/06 08:06:08;;;;;;;8.60;5.80;;;32.40;77.30;;;;;;4995335;28;20477;-50
2021/08/06 08:08:34;;;;;;;6.40;5.80;;;33.50;71.20;;;;;;4995547;28;20442;-47
2021/08/06 08:11:01;;;;;;;7.00;6.30;;;34.70;63.80;;;;;;4995409;28;20540;-52
2021/08/06 08:13:30;;;;;;;7.40;5.70;;;35.40;59.80;;;;;;4995028;28;20445;-50
2021/08/06 08:15:57;;;;;;;5.70;5.13;;;36.50;56.20;;;;;;4995111;28;20827;-47
2021/08/06 08:18:23;;;;;;;5.53;5.03;;;37.40;53.30;;;;;;4995068;28;20577;-52
2021/08/06 08:20:52;;;;;;;6.63;5.33;;;37.80;50.30;;;;;;4995283;28;20466;-53
2021/08/06 08:23:20;;;;;;;7.90;4.83;;;37.70;49.60;;;;;;4995416;28;20450;-51
2021/08/06 08:25:49;;;;;;;6.47;4.50;;;37.80;48.30;;;;;;4995377;28;20446;-51
2021/08/06 08:28:15;;;;;;;8.40;4.30;;;37.80;47.60;;;;;;4995201;28;20465;-52
2021/08/06 08:30:42;;;;;;;4.63;4.23;;;37.80;46.30;;;;;;4995275;28;20445;-52
2021/08/06 08:33:09;;;;;;;4.50;4.10;;;37.40;46.00;;;;;;4994724;28;20974;-51
2021/08/06 08:35:36;;;;;;;7.73;5.70;;;37.60;45.50;;;;;;4995203;28;20489;-49
2021/08/06 08:38:04;;;;;;;7.33;6.63;;;37.50;45.10;;;;;;4995187;28;20450;-51
2021/08/06 08:40:31;;;;;;;5.50;4.50;;;37.70;44.90;;;;;;4995052;28;20516;-50
2021/08/06 08:42:58;;;;;;;4.73;3.80;;;37.50;44.70;;;;;;4995261;28;20434;-54
2021/08/06 08:45:26;;;;;;;4.67;4.27;;;37.50;45.10;;;;;;4994725;28;20466;-49
2021/08/06 08:47:54;;;;;;;4.00;3.10;;;37.70;43.60;;;;;;4994982;28;20450;-52
2021/08/06 08:50:21;;;;;;;3.27;3.07;;;37.60;41.90;;;;;;4995056;28;20609;-52
2021/08/06 08:52:47;;;;;;;3.93;3.43;;;37.70;42.90;;;;;;4994401;28;20872;-51
2021/08/06 08:55:20;;;;;;;4.97;4.10;;;37.80;42.00;;;;;;4993886;28;20846;-52
2021/08/06 08:57:46;;;;;;;4.97;3.30;;;38.00;41.60;;;;;;4994901;28;20470;-48
2021/08/06 09:00:16;;;;;;;3.67;3.37;;;37.90;41.60;;;;;;4994494;28;20462;-53
2021/08/06 09:02:43;;;;;;;5.10;3.97;;;37.80;41.40;;;;;;4994688;28;20454;-50
2021/08/06 09:05:14;;;;;;;4.47;4.13;;;37.90;41.90;;;;;;4994503;28;20900;-51
2021/08/06 09:07:43;;;;;;;3.63;3.33;;;38.10;41.70;;;;;;4994909;28;20457;-51
2021/08/06 09:10:18;;;;;;;3.27;2.97;;;38.10;41.70;;;;;;4994600;28;20454;-52
2021/08/06 09:12:50;;;;;;;3.50;2.73;;;38.00;40.40;;;;;;4994744;28;20884;-53
2021/08/06 09:15:19;;;;;;;3.63;3.27;;;37.60;40.30;;;;;;4994421;28;20538;-53
2021/08/06 09:17:46;;;;;;;3.70;3.37;;;36.90;41.50;;;;;;4994561;28;20932;-50
2021/08/06 09:20:13;;;;;;;2.87;2.63;;;36.90;41.30;;;;;;4994787;28;20528;-54
2021/08/06 09:22:42;;;;;;;3.30;3.00;;;36.90;40.00;;;;;;4994334;28;20911;-52
2021/08/06 09:25:12;;;;;;;3.10;2.80;;;36.90;41.50;;;;;;4994529;28;20450;-50
2021/08/06 09:27:42;;;;;;;3.30;3.00;;;36.80;40.20;;;;;;4994337;28;20446;-54
2021/08/06 09:30:11;;;;;;;7.87;3.37;;;36.90;39.90;;;;;;4994331;28;20469;-50
2021/08/06 09:32:52;;;;;;;3.73;3.43;;;36.80;40.50;;;;;;4994157;28;20450;-54
2021/08/06 09:35:21;;;;;;;4.33;3.10;;;37.10;40.80;;;;;;4993914;28;20454;-52
2021/08/06 09:37:49;;;;;;;4.20;2.60;;;37.30;40.20;;;;;;4994512;28;20807;-53
2021/08/06 09:40:19;;;;;;;3.50;2.50;;;37.80;38.80;;;;;;4994216;28;20450;-52
2021/08/06 09:42:56;;;;;;;7.30;3.33;;;38.10;38.20;;;;;;4994246;28;20470;-51
2021/08/06 09:45:25;;;;;;;3.20;2.90;;;38.10;38.50;;;;;;4994316;28;20822;-50
2021/08/06 09:47:57;;;;;;;3.27;2.97;;;38.20;38.00;;;;;;4993795;28;20446;-53
2021/08/06 09:50:26;;;;;;;3.07;2.77;;;38.60;37.90;;;;;;4994108;28;20541;-54
2021/08/06 09:52:54;;;;;;;3.50;3.20;;;38.30;37.40;;;;;;4994319;28;20454;-52
2021/08/06 09:55:24;;;;;;;3.47;3.17;;;38.10;37.60;;;;;;4993665;28;21106;-49
2021/08/06 09:57:53;;;;;;;3.63;3.33;;;37.80;38.30;;;;;;4994971;28;20513;-52
2021/08/06 10:00:22;;;;;;;3.83;3.20;;;37.80;38.40;;;;;;4994291;28;20462;-52
2021/08/06 10:02:49;;;;;;;3.80;3.50;;;37.60;38.90;;;;;;4993912;28;20466;-50
2021/08/06 10:05:17;;;;;;;3.73;2.63;;;37.10;38.50;;;;;;4994249;28;20756;-51
2021/08/06 10:07:47;;;;;;;4.20;3.20;;;36.80;38.40;;;;;;4996786;28;20838;-51
2021/08/06 10:10:16;;;;;;;3.40;3.10;;;36.80;39.70;;;;;;4997967;28;20456;-54
2021/08/06 10:12:43;;;;;;;3.20;2.90;;;36.70;39.20;;;;;;4997596;28;20606;-52
2021/08/06 10:15:15;;;;;;;6.57;3.43;;;36.90;38.90;;;;;;4997230;28;20446;-54
2021/08/06 10:17:42;;;;;;;3.37;3.07;;;36.90;38.70;;;;;;4998187;28;20484;-51
2021/08/06 10:20:11;;;;;;;6.30;3.33;;;36.80;39.00;;;;;;4999157;28;20448;-53
2021/08/06 10:22:38;;;;;;;3.40;3.10;;;36.70;38.40;;;;;;4999151;28;20516;-52
2021/08/06 10:25:07;;;;;;;3.53;2.93;;;36.20;39.70;;;;;;4997904;28;20965;-53
2021/08/06 10:27:35;;;;;;;5.87;3.37;;;35.00;40.00;;;;;;4997761;28;20457;-49
2021/08/06 10:30:05;;;;;;;4.30;3.90;;;33.70;41.40;;;;;;4997555;28;20461;-53
2021/08/06 10:32:34;;;;;;;3.73;3.10;;;32.90;43.70;;;;;;4997245;28;20504;-54
2021/08/06 10:35:22;;;;;;;3.40;3.10;;;32.40;44.20;;;;;;4997041;28;20766;-54
2021/08/06 10:38:01;;;;;;;5.80;4.47;;;31.80;44.50;;;;;;4997026;28;21032;-51
2021/08/06 10:40:56;;;;;;;7.73;4.17;;;31.20;45.30;;;;;;4997123;28;20453;-50
2021/08/06 10:44:03;;;;;;;6.57;4.57;;;30.70;47.20;;;;;;4997418;28;20505;-50
2021/08/06 10:46:58;;;;;;;4.40;3.33;;;30.20;47.40;;;;;;4917854;29;20935;-50
2021/08/06 10:49:27;;;;;;;3.93;3.30;;;30.50;48.60;;;;;;4996990;28;20557;-52
2021/08/06 10:52:16;;;;;;;3.80;2.90;;;31.10;47.20;;;;;;4996920;28;20457;-53
2021/08/06 10:54:44;;;;;;;3.40;3.10;;;31.20;46.20;;;;;;4996333;28;20442;-52
2021/08/06 10:57:37;;;;;;;3.10;2.80;;;30.80;46.90;;;;;;4996978;28;20528;-53
2021/08/06 11:00:05;;;;;;;4.07;3.77;;;30.40;46.90;;;;;;4997061;28;20437;-54
2021/08/06 11:02:48;;;;;;;3.53;3.23;;;30.00;48.00;;;;;;4996814;28;20454;-51
2021/08/06 11:05:40;;;;;;;6.10;3.30;;;30.00;48.70;;;;;;4997015;28;20533;-52
2021/08/06 11:08:58;;;;;;;4.60;4.17;;;29.50;48.70;;;;;;4996839;28;20761;-54
2021/08/06 11:11:45;;;;;;;5.20;3.27;;;29.00;50.50;;;;;;4996297;28;20501;-51
2021/08/06 11:14:13;;;;;;;4.17;3.30;;;28.80;50.60;;;;;;4996263;28;20445;-53
2021/08/06 11:17:06;;;;;;;3.10;2.90;;;29.00;50.90;;;;;;4996326;28;20478;-53
2021/08/06 11:19:35;;;;;;;5.50;4.17;;;29.10;50.60;;;;;;4995748;28;20437;-51
2021/08/06 11:22:06;;;;;;;3.50;3.20;;;29.40;51.30;;;;;;4996620;28;20438;-51
2021/08/06 11:24:38;;;;;;;3.80;3.50;;;29.70;50.60;;;;;;4996570;28;20775;-53
2021/08/06 11:27:04;;;;;;;4.07;3.40;;;30.00;49.80;;;;;;4996435;28;20752;-53
2021/08/06 11:29:31;;;;;;;3.60;3.30;;;30.30;50.10;;;;;;4981538;28;20509;-50
2021/08/06 11:32:04;;;;;;;5.33;3.57;;;30.40;50.50;;;;;;4976660;28;20908;-51
2021/08/06 11:34:49;;;;;;;3.50;3.17;;;30.50;48.00;;;;;;4976583;28;20521;-48
2021/08/06 11:37:17;;;;;;;3.40;3.07;;;30.80;47.80;;;;;;4976937;28;20875;-51
2021/08/06 11:40:07;;;;;;;2.93;2.73;;;30.90;46.50;;;;;;4976680;28;20823;-53
2021/08/06 11:42:34;;;;;;;4.00;3.60;;;30.90;45.90;;;;;;4976948;28;20435;-51
2021/08/06 11:45:00;;;;;;;3.27;2.97;;;30.80;46.20;;;;;;4976546;28;20905;-50
2021/08/06 11:47:38;;;;;;;4.53;3.27;;;30.40;47.70;;;;;;4976005;28;20443;-54
2021/08/06 11:50:07;;;;;;;7.27;4.00;;;30.10;46.80;;;;;;4975551;28;20795;-53
2021/08/06 11:52:40;;;;;;;3.33;3.03;;;29.90;47.80;;;;;;4975401;28;20450;-53
2021/08/06 11:55:08;;;;;;;3.00;2.80;;;29.50;48.00;;;;;;4976320;28;20475;-51
2021/08/06 11:57:46;;;;;;;3.40;3.10;;;29.20;48.20;;;;;;4975906;28;20495;-53
2021/08/06 12:00:32;;;;;;;3.93;3.17;;;29.00;49.10;;;;;;4976285;28;20466;-54
2021/08/06 12:03:13;;;;;;;4.77;4.20;;;28.80;49.70;;;;;;4976481;28;20498;-52
2021/08/06 12:05:42;;;;;;;5.40;3.53;;;28.90;51.50;;;;;;4976004;28;20446;-52
2021/08/06 12:08:22;;;;;;;4.80;3.67;;;28.90;50.10;;;;;;4976194;28;20451;-50
2021/08/06 12:10:51;;;;;;;4.03;3.50;;;28.80;50.20;;;;;;4975929;28;20434;-52
2021/08/06 12:13:21;;;;;;;6.33;3.50;;;28.80;50.90;;;;;;4976031;28;20450;-54
2021/08/06 12:15:48;;;;;;;3.53;3.13;;;28.90;49.90;;;;;;4976292;28;20439;-55
2021/08/06 12:18:17;;;;;;;6.43;2.90;;;29.10;51.10;;;;;;4975800;28;20910;-54
2021/08/06 12:20:47;;;;;;;5.77;4.97;;;29.20;49.70;;;;;;4975980;28;20470;-53
2021/08/06 12:23:17;;;;;;;6.57;3.87;;;29.30;50.00;;;;;;4976067;28;20435;-55
2021/08/06 12:26:03;;;;;;;3.10;2.80;;;29.30;48.50;;;;;;4975868;28;20470;-53
2021/08/06 12:28:30;;;;;;;4.53;3.30;;;29.00;48.70;;;;;;4975928;28;20475;-52
2021/08/06 12:31:07;;;;;;;5.97;5.37;;;28.70;47.80;;;;;;4976141;28;20911;-53
2021/08/06 12:33:34;;;;;;;3.37;3.07;;;28.60;49.10;;;;;;4975775;28;20838;-54
2021/08/06 12:36:09;;;;;;;3.97;2.80;;;28.70;48.50;;;;;;4975500;28;20447;-53
2021/08/06 12:38:35;;;;;;;3.87;2.60;;;28.60;48.50;;;;;;4975374;28;20478;-51
2021/08/06 12:41:04;;;;;;;2.40;2.20;;;28.50;48.70;;;;;;4976326;28;20534;-45
2021/08/06 12:43:30;;;;;;;2.83;2.37;;;28.50;49.50;;;;;;4975700;28;20522;-49
2021/08/06 12:46:13;;;;;;;4.53;3.30;;;28.20;49.00;;;;;;4975628;28;20505;-46
2021/08/06 12:49:04;;;;;;;2.83;2.63;;;28.20;50.10;;;;;;4975491;28;20947;-46
2021/08/06 12:51:31;;;;;;;4.33;2.23;;;28.30;49.70;;;;;;4975399;28;20478;-51
2021/08/06 12:53:58;;;;;;;3.50;2.97;;;28.40;50.00;;;;;;4975820;28;20446;-49